createdAt,value
2022-10-06T07:18:49.920Z,12.3
2022-10-06T07:19:15.418Z,12.3
2022-10-06T07:20:21.443Z,12.3
2022-10-06T07:21:15.554Z,12
2022-10-06T07:22:15.669Z,12
2022-10-06T07:23:15.590Z,12.1
2022-10-06T07:24:15.641Z,12.1
2022-10-06T07:25:15.964Z,12.1
2022-10-06T07:26:15.750Z,12.1
2022-10-06T07:27:15.796Z,12.2
2022-10-06T07:28:15.883Z,12.3
2022-10-06T07:29:15.941Z,12.3
2022-10-06T07:30:16.023Z,12.4
2022-10-06T07:31:16.104Z,12.3
2022-10-06T07:32:16.122Z,12.1
2022-10-06T07:33:16.121Z,12.2
2022-10-06T07:34:16.508Z,12.4
2022-10-06T07:35:16.386Z,12.8
2022-10-06T07:36:17.235Z,13
2022-10-06T07:37:16.468Z,13
2022-10-06T07:38:16.520Z,13
2022-10-06T07:39:16.566Z,13.2
2022-10-06T07:40:16.840Z,13.1
2022-10-06T07:41:20.423Z,12.8
2022-10-06T07:42:16.766Z,12.4
2022-10-06T07:43:16.807Z,12.6
2022-10-06T07:44:16.844Z,12.8
2022-10-06T07:45:16.974Z,12.9
2022-10-06T07:46:17.109Z,13.1
2022-10-06T07:47:17.078Z,13
2022-10-06T07:48:17.079Z,13.1
2022-10-06T07:49:17.413Z,13
2022-10-06T07:50:17.186Z,13
2022-10-06T07:51:17.213Z,13.1
2022-10-06T07:56:17.501Z,13
2022-10-06T07:57:17.548Z,13.1
2022-10-06T07:58:17.592Z,13
2022-10-06T07:59:18.683Z,13
2022-10-06T08:00:17.935Z,13.1
2022-10-06T08:01:17.829Z,13.2
2022-10-06T08:02:17.812Z,13.1
2022-10-06T08:03:18.130Z,13.2
2022-10-06T08:04:17.941Z,13.3
2022-10-06T08:05:18.082Z,13.3
2022-10-06T08:06:18.076Z,13.3
2022-10-06T08:07:18.085Z,13.4
2022-10-06T08:08:18.137Z,13.2
2022-10-06T08:09:18.204Z,13.2
2022-10-06T08:10:18.265Z,13.2
2022-10-06T08:11:18.351Z,13.3
2022-10-06T08:12:18.382Z,13.1
2022-10-06T08:13:18.447Z,13
2022-10-06T08:14:18.811Z,12.9
2022-10-06T08:15:18.540Z,13
2022-10-06T08:16:18.637Z,13.2
2022-10-06T08:33:25.129Z,13.7
2022-10-06T08:34:19.540Z,13.8
2022-10-06T08:35:19.601Z,13.9
2022-10-06T08:36:19.648Z,14
2022-10-06T08:37:20.534Z,14.2
2022-10-06T08:38:19.802Z,14.1
2022-10-06T08:39:19.909Z,14.2
2022-10-06T08:40:20.088Z,14.3
2022-10-06T08:41:20.162Z,14.2
2022-10-06T08:42:20.148Z,14
2022-10-06T08:43:20.195Z,14.1
2022-10-06T08:44:20.214Z,14.5
2022-10-06T08:45:20.276Z,14.5
2022-10-06T08:46:22.397Z,14.3
2022-10-06T08:47:20.400Z,14.1
2022-10-06T08:48:20.450Z,14.1
2022-10-06T08:49:20.576Z,14.3
2022-10-06T08:50:20.615Z,14.5
2022-10-06T08:51:25.600Z,14.7
2022-10-06T08:52:20.694Z,14.8
2022-10-06T08:53:20.754Z,14.6
2022-10-06T08:54:20.825Z,14.4
2022-10-06T08:55:20.851Z,14.2
2022-10-06T08:56:20.920Z,14.4
2022-10-06T08:57:20.927Z,14.5
2022-10-06T08:58:20.982Z,14.7
2022-10-06T08:59:21.136Z,14.8
2022-10-06T09:00:22.239Z,15
2022-10-06T09:01:21.251Z,15.1
2022-10-06T09:02:21.333Z,15.2
2022-10-06T09:03:21.288Z,15.2
2022-10-06T09:04:21.361Z,15
2022-10-06T09:05:21.405Z,15
2022-10-06T09:06:21.418Z,15.4
2022-10-06T09:07:21.479Z,15.4
2022-10-06T09:08:21.527Z,15.6
2022-10-06T09:09:21.624Z,15.7
2022-10-06T09:10:21.673Z,15.7
2022-10-06T09:11:21.709Z,15.8
2022-10-06T09:12:21.795Z,15.6
2022-10-06T09:13:22.251Z,15
2022-10-06T09:14:21.906Z,15.1
2022-10-06T09:15:21.983Z,15.3
2022-10-06T09:16:22.075Z,15.4
2022-10-06T09:17:22.092Z,15.6
2022-10-06T09:18:22.102Z,15.5
2022-10-06T09:19:23.589Z,15.8
2022-10-06T09:20:22.194Z,16.2
2022-10-06T09:21:22.316Z,16.4
2022-10-06T09:22:22.307Z,16.5
2022-10-06T09:23:22.380Z,16.6
2022-10-06T09:24:22.517Z,16.5
2022-10-06T09:25:22.491Z,16.7
2022-10-06T09:26:22.518Z,16.7
2022-10-06T09:27:22.597Z,16.4
2022-10-06T09:28:22.679Z,16
2022-10-06T09:29:22.712Z,16.3
2022-10-06T09:30:22.782Z,16.2
2022-10-06T09:31:22.860Z,16.1
2022-10-06T09:32:22.870Z,16
2022-10-06T09:33:22.922Z,15.9
2022-10-06T09:34:22.994Z,16.7
2022-10-06T09:35:23.021Z,16.5
2022-10-06T09:36:23.116Z,17.1
2022-10-06T09:37:23.159Z,17.1
2022-10-06T09:38:23.203Z,17.1
2022-10-06T09:39:23.271Z,17.3
2022-10-06T09:40:23.298Z,17.6
2022-10-06T09:41:23.442Z,17.5
2022-10-06T09:42:23.476Z,17.5
2022-10-06T09:43:23.551Z,17.5
2022-10-06T09:44:23.605Z,17.3
2022-10-06T09:45:23.643Z,17.2
2022-10-06T09:46:23.725Z,17.9
2022-10-06T09:47:23.762Z,18
2022-10-06T09:48:24.691Z,17.8
2022-10-06T09:49:23.856Z,16.4
2022-10-06T09:50:23.913Z,16.1
2022-10-06T09:51:23.944Z,16.2
2022-10-06T09:52:23.979Z,16.3
2022-10-06T09:53:24.046Z,16.2
2022-10-06T09:54:24.098Z,16.7
2022-10-06T09:55:24.103Z,17.2
2022-10-06T09:56:24.178Z,16.8
2022-10-06T09:57:24.200Z,17.3
2022-10-06T09:58:24.315Z,17.8
2022-10-06T09:59:24.350Z,18.3
2022-10-06T10:00:24.410Z,17.9
2022-10-06T10:01:24.485Z,18.2
2022-10-06T10:02:24.503Z,18.4
2022-10-06T10:03:24.545Z,18.2
2022-10-06T10:04:24.685Z,17.2
2022-10-06T10:05:24.663Z,17.1
2022-10-06T10:06:24.716Z,16.6
2022-10-06T10:07:24.769Z,16.4
2022-10-06T10:08:24.906Z,16.6
2022-10-06T10:09:24.947Z,16.6
2022-10-06T10:10:24.981Z,16.6
2022-10-06T10:11:25.013Z,16.5
2022-10-06T10:12:25.085Z,16.2
2022-10-06T10:13:25.125Z,16.6
2022-10-06T10:14:25.194Z,17
2022-10-06T10:15:25.255Z,17.8
2022-10-06T10:16:25.394Z,17.8
2022-10-06T10:17:25.321Z,18
2022-10-06T10:18:25.378Z,17.8
2022-10-06T10:19:25.448Z,17.7
2022-10-06T10:20:25.494Z,17.4
2022-10-06T10:21:25.582Z,17.3
2022-10-06T10:22:25.591Z,17.9
2022-10-06T10:23:30.277Z,18.3
2022-10-06T10:24:25.763Z,18.6
2022-10-06T10:25:25.782Z,17.9
2022-10-06T10:26:25.817Z,17.8
2022-10-06T10:27:25.867Z,18
2022-10-06T10:28:25.971Z,18.1
2022-10-06T10:29:28.238Z,18.2
2022-10-06T10:30:26.073Z,18.8
2022-10-06T10:31:26.222Z,18.3
2022-10-06T10:32:26.167Z,18.2
2022-10-06T10:33:26.517Z,18.9
2022-10-06T10:34:26.306Z,19.3
2022-10-06T10:35:26.364Z,19.5
2022-10-06T10:36:26.412Z,19.2
2022-10-06T10:37:31.517Z,19.5
2022-10-06T10:38:26.595Z,19.1
2022-10-06T10:39:26.596Z,19.5
2022-10-06T10:40:26.635Z,18.8
2022-10-06T10:41:26.696Z,18.9
2022-10-06T10:42:26.756Z,19.2
2022-10-06T10:43:26.791Z,19.1
2022-10-06T10:44:26.829Z,19.6
2022-10-06T10:45:26.908Z,20.1
2022-10-06T10:46:27.124Z,20.3
2022-10-06T10:47:27.064Z,20.5
2022-10-06T10:48:27.126Z,20.8
2022-10-06T10:49:27.164Z,20.2
2022-10-06T10:50:27.234Z,19.5
2022-10-06T10:51:27.235Z,19.8
2022-10-06T10:52:27.281Z,19.9
2022-10-06T10:53:27.354Z,19.5
2022-10-06T10:54:27.428Z,19.7
2022-10-06T10:55:27.465Z,19.5
2022-10-06T10:56:27.516Z,19.7
2022-10-06T10:57:27.883Z,20.2
2022-10-06T10:58:27.618Z,20.3
2022-10-06T10:59:27.728Z,19.8
2022-10-06T11:00:27.748Z,20.1
2022-10-06T11:01:27.762Z,20.9
2022-10-06T11:02:27.867Z,20.9
2022-10-06T11:03:27.947Z,20.3
2022-10-06T11:04:28.082Z,20.5
2022-10-06T11:05:28.903Z,20.7
2022-10-06T11:06:28.142Z,20.9
2022-10-06T11:07:28.193Z,21
2022-10-06T11:08:28.306Z,21.1
2022-10-06T11:09:28.492Z,21.4
2022-10-06T11:10:28.337Z,21
2022-10-06T11:11:28.382Z,20.5
2022-10-06T11:12:28.459Z,20.1
2022-10-06T11:13:28.602Z,20
2022-10-06T11:14:28.597Z,20.1
2022-10-06T11:15:28.718Z,20.4
2022-10-06T11:16:28.759Z,20.2
2022-10-06T11:17:29.051Z,20.5
2022-10-06T11:18:28.836Z,20.3
2022-10-06T11:19:28.996Z,20.2
2022-10-06T11:20:28.942Z,20.1
2022-10-06T11:21:28.973Z,20
2022-10-06T11:22:29.063Z,20.6
2022-10-06T11:23:29.122Z,20.9
2022-10-06T11:24:29.165Z,20.4
2022-10-06T11:25:30.135Z,20.5
2022-10-06T11:26:29.259Z,20.3
2022-10-06T11:27:29.364Z,20.4
2022-10-06T11:28:29.477Z,20.2
2022-10-06T11:29:29.527Z,20.6
2022-10-06T11:30:29.513Z,20.5
2022-10-06T11:33:14.271Z,20.2
2022-10-06T11:33:29.713Z,20.2
2022-10-06T11:34:29.782Z,21
2022-10-06T11:35:29.826Z,20.8
2022-10-06T11:36:29.848Z,20.6
2022-10-06T11:37:29.919Z,20.8
2022-10-06T11:38:29.929Z,20.5
2022-10-06T11:39:29.995Z,20.5
2022-10-06T11:40:30.041Z,20.9
2022-10-06T11:41:30.114Z,20.8
2022-10-06T11:43:30.222Z,20.6
2022-10-06T11:44:30.320Z,21.1
2022-10-06T11:45:30.456Z,21.2
2022-10-06T11:46:31.721Z,21.3
2022-10-06T11:47:35.261Z,21.5
2022-10-06T11:48:30.524Z,21.6
2022-10-06T11:49:30.583Z,21.6
2022-10-06T11:50:30.669Z,21.2
2022-10-06T11:51:30.683Z,21.2
2022-10-06T11:52:30.724Z,21.3
2022-10-06T11:53:30.746Z,21.1
2022-10-06T11:54:30.840Z,20.8
2022-10-06T11:55:30.847Z,21.3
2022-10-06T11:56:30.938Z,21.4
2022-10-06T11:57:31.492Z,21.1
2022-10-06T11:58:41.722Z,20.8
2022-10-06T11:59:31.126Z,21
2022-10-06T12:00:31.294Z,20.6
2022-10-06T12:01:31.233Z,21.3
2022-10-06T12:02:31.392Z,21.5
2022-10-06T12:03:39.736Z,21.3
2022-10-06T12:04:31.426Z,21
2022-10-06T12:05:55.622Z,21.4
2022-10-06T12:06:39.818Z,21.9
2022-10-06T12:07:31.680Z,21.8
2022-10-06T12:08:31.612Z,22
2022-10-06T12:09:31.703Z,21.5
2022-10-06T12:10:31.882Z,21.9
2022-10-06T12:11:31.788Z,21.7
2022-10-06T12:12:31.820Z,21.5
2022-10-06T12:17:05.405Z,21.7
2022-10-06T12:17:32.097Z,22
2022-10-06T12:18:32.132Z,22.1
2022-10-06T12:19:32.217Z,22
2022-10-06T12:20:32.228Z,21.8
2022-10-06T12:21:32.318Z,21.9
2022-10-06T12:22:32.343Z,22
2022-10-06T12:23:32.420Z,22
2022-10-06T12:24:36.821Z,21.7
2022-10-06T12:25:32.523Z,21.5
2022-10-06T12:26:32.602Z,21.9
2022-10-06T12:27:32.640Z,21.7
2022-10-06T12:28:32.734Z,21.8
2022-10-06T12:29:32.766Z,22.1
2022-10-06T12:30:32.960Z,22.2
2022-10-06T12:31:32.910Z,22
2022-10-06T12:32:32.939Z,21.8
2022-10-06T12:33:33.037Z,21.5
2022-10-06T12:34:33.050Z,21.5
2022-10-06T12:35:33.108Z,21.3
2022-10-06T12:36:33.213Z,21.3
2022-10-06T12:37:33.210Z,21.3
2022-10-06T12:38:33.301Z,21.4
2022-10-06T12:39:33.341Z,21.7
2022-10-06T12:40:33.382Z,21.5
2022-10-06T12:41:33.543Z,21.5
2022-10-06T12:42:33.478Z,20.8
2022-10-06T12:43:33.471Z,21.4
2022-10-06T12:44:33.560Z,21.6
2022-10-06T12:45:33.610Z,21.7
2022-10-06T12:46:33.676Z,21.3
2022-10-06T12:47:33.724Z,21.1
2022-10-06T12:48:33.763Z,21
2022-10-06T12:49:33.816Z,21.1
2022-10-06T12:50:33.868Z,21.5
2022-10-06T12:52:33.956Z,21.7
2022-10-06T12:53:33.999Z,22
2022-10-06T12:54:34.087Z,22.1
2022-10-06T12:55:34.131Z,22.2
2022-10-06T12:56:34.233Z,21.5
2022-10-06T12:57:34.240Z,21.8
2022-10-06T12:58:34.286Z,21.9
2022-10-06T12:59:34.374Z,21.5
2022-10-06T13:00:34.434Z,21.6
2022-10-06T13:01:34.536Z,21.3
2022-10-06T13:02:34.544Z,21.3
2022-10-06T13:03:34.574Z,21.6
2022-10-06T13:04:34.665Z,21.4
2022-10-06T13:05:34.668Z,21.2
2022-10-06T13:06:34.723Z,21.2
2022-10-06T13:07:34.879Z,21.5
2022-10-06T13:08:34.853Z,21.7
2022-10-06T13:09:34.960Z,21.2
2022-10-06T13:10:35.019Z,21.2
2022-10-06T13:11:34.956Z,21.1
2022-10-06T13:12:35.012Z,21.2
2022-10-06T13:13:35.065Z,21.8
2022-10-06T13:14:35.117Z,21.7
2022-10-06T13:15:35.193Z,21.7
2022-10-06T13:16:35.318Z,22
2022-10-06T13:17:35.360Z,21.9
2022-10-06T13:18:35.376Z,22.1
2022-10-06T13:19:35.431Z,21.8
2022-10-06T13:20:40.581Z,21.8
2022-10-06T13:21:35.515Z,21.9
2022-10-06T13:22:35.615Z,22.2
2022-10-06T13:23:35.662Z,21.8
2022-10-06T13:24:35.747Z,21.5
2022-10-06T13:25:35.788Z,21.5
2022-10-06T13:26:36.093Z,21.6
2022-10-06T13:27:35.915Z,21.4
2022-10-06T13:28:36.015Z,21.3
2022-10-06T13:29:36.007Z,21.3
2022-10-06T13:30:38.670Z,21.4
2022-10-06T13:31:36.140Z,21.4
2022-10-06T13:32:36.157Z,20.9
2022-10-06T13:33:36.219Z,20.9
2022-10-06T13:34:36.278Z,21.2
2022-10-06T13:35:36.338Z,21
2022-10-06T13:36:36.417Z,20.9
2022-10-06T13:37:36.425Z,20.9
2022-10-06T13:38:36.486Z,20.7
2022-10-06T13:39:36.550Z,20.3
2022-10-06T13:40:45.176Z,20
2022-10-06T13:41:36.645Z,20
2022-10-06T13:42:36.703Z,20.1
2022-10-06T13:43:39.564Z,19.7
2022-10-06T13:44:36.812Z,19.8
2022-10-06T13:45:36.822Z,20
2022-10-06T13:46:37.008Z,20
2022-10-06T13:47:36.982Z,19.8
2022-10-06T13:48:37.019Z,19.9
2022-10-06T13:49:37.116Z,19.7
2022-10-06T13:50:37.210Z,19.5
2022-10-06T13:51:37.221Z,19.2
2022-10-06T13:52:37.316Z,19.1
2022-10-06T13:53:37.320Z,19
2022-10-06T13:54:37.378Z,18.9
2022-10-06T13:55:37.427Z,19.2
2022-10-06T13:56:37.522Z,19.1
2022-10-06T13:57:37.523Z,18.9
2022-10-06T13:58:37.599Z,19
2022-10-06T13:59:37.673Z,19.1
2022-10-06T14:00:37.716Z,19
2022-10-06T14:01:37.779Z,18.9
2022-10-06T14:02:37.884Z,19.1
2022-10-06T14:03:37.968Z,19
2022-10-06T14:04:39.549Z,19
2022-10-06T14:05:38.337Z,18.9
2022-10-06T14:06:38.179Z,19.1
2022-10-06T14:07:38.228Z,19.1
2022-10-06T14:08:38.314Z,18.9
2022-10-06T14:09:38.350Z,19
2022-10-06T14:10:38.449Z,18.7
2022-10-06T14:11:39.087Z,18.4
2022-10-06T14:12:38.524Z,18.4
2022-10-06T14:13:38.579Z,18.5
2022-10-06T14:14:38.613Z,18.7
2022-10-06T14:15:38.696Z,18.7
2022-10-06T14:16:38.710Z,18.6
2022-10-06T14:17:38.754Z,18.4
2022-10-06T14:18:38.821Z,18.4
2022-10-06T14:19:38.887Z,18.4
2022-10-06T14:20:38.957Z,18.7
2022-10-06T14:21:38.970Z,18.8
2022-10-06T14:22:39.044Z,18.8
2022-10-06T14:23:39.088Z,18.9
2022-10-06T14:24:39.139Z,18.8
2022-10-06T14:25:40.208Z,18.4
2022-10-06T14:26:39.277Z,18.3
2022-10-06T14:27:39.326Z,18
2022-10-06T14:28:39.416Z,18
2022-10-06T14:29:39.425Z,18.2
2022-10-06T14:30:39.557Z,18.4
2022-10-06T14:31:39.616Z,18.4
2022-10-06T14:32:39.595Z,18.3
2022-10-06T14:33:39.634Z,18.3
2022-10-06T14:34:39.783Z,18.1
2022-10-06T14:35:39.767Z,18.1
2022-10-06T14:36:39.845Z,18.2
2022-10-06T14:37:40.042Z,18.3
2022-10-06T14:38:39.942Z,18.2
2022-10-06T14:39:39.969Z,18.2
2022-10-06T14:40:40.049Z,18.2
2022-10-06T14:41:40.092Z,18.1
2022-10-06T14:42:40.205Z,18.2
2022-10-06T14:43:40.189Z,18.4
2022-10-06T14:45:26.063Z,18.4
2022-10-06T14:45:40.302Z,18.4
2022-10-06T14:46:40.432Z,18.3
2022-10-06T14:47:40.505Z,18.1
2022-10-06T14:48:40.473Z,18
2022-10-06T14:49:40.560Z,17.9
2022-10-06T14:50:40.589Z,17.7
2022-10-06T14:51:40.724Z,18.1
2022-10-06T14:52:40.726Z,18
2022-10-06T14:53:40.793Z,17.8
2022-10-06T14:54:40.843Z,17.9
2022-10-06T14:55:40.881Z,17.7
2022-10-06T14:56:40.951Z,17.7
2022-10-06T14:57:41.004Z,17.7
2022-10-06T14:58:41.059Z,17.6
2022-10-06T14:59:41.156Z,17.9
2022-10-06T15:00:41.175Z,18
2022-10-06T15:01:41.220Z,17.9
2022-10-06T15:02:41.602Z,18
2022-10-06T15:03:44.531Z,17.8
2022-10-06T15:04:41.457Z,18
2022-10-06T15:05:41.482Z,18.2
2022-10-06T15:06:41.524Z,18
2022-10-06T15:07:41.586Z,17.8
2022-10-06T15:08:41.636Z,17.6
2022-10-06T15:09:41.725Z,17.7
2022-10-06T15:10:41.745Z,17.9
2022-10-06T15:11:41.826Z,18
2022-10-06T15:12:41.900Z,18
2022-10-06T15:13:41.926Z,18.1
2022-10-06T15:14:41.972Z,18
2022-10-06T15:15:42.056Z,17.9
2022-10-06T15:16:42.103Z,17.6
2022-10-06T15:17:42.285Z,17.8
2022-10-06T15:18:42.873Z,17.8
2022-10-06T15:19:42.441Z,17.7
2022-10-06T15:20:43.093Z,17.8
2022-10-06T15:21:42.526Z,17.6
2022-10-06T15:22:42.538Z,17.5
2022-10-06T15:23:42.605Z,17.7
2022-10-06T15:24:42.649Z,17.7
2022-10-06T15:25:42.687Z,18
2022-10-06T15:26:42.771Z,18.2
2022-10-06T15:27:42.889Z,18
2022-10-06T15:28:42.925Z,17.6
2022-10-06T15:29:42.935Z,17.6
2022-10-06T15:30:43.027Z,17.5
2022-10-06T15:31:43.135Z,17.4
2022-10-06T15:32:43.115Z,17.4
2022-10-06T15:33:43.197Z,17.7
2022-10-06T15:34:43.333Z,18
2022-10-06T15:35:43.288Z,18
2022-10-06T15:36:43.327Z,17.8
2022-10-06T15:37:43.408Z,17.6
2022-10-06T15:38:43.456Z,17.6
2022-10-06T15:39:43.553Z,17.6
2022-10-06T15:40:43.569Z,17.6
2022-10-06T15:41:52.120Z,17.6
2022-10-06T15:42:43.729Z,17.4
2022-10-06T15:43:43.765Z,17.3
2022-10-06T15:44:43.863Z,17.2
2022-10-06T15:45:43.866Z,17.1
2022-10-06T15:46:43.977Z,17.1
2022-10-06T15:47:44.003Z,17.3
2022-10-06T15:48:44.437Z,17.3
2022-10-06T15:49:44.123Z,17.3
2022-10-06T15:50:44.169Z,17.2
2022-10-06T15:51:44.509Z,17
2022-10-06T15:52:44.450Z,17.1
2022-10-06T15:53:45.482Z,17.5
2022-10-06T15:54:46.136Z,17.5
2022-10-06T15:55:44.570Z,17.5
2022-10-06T15:56:44.704Z,17.6
2022-10-06T15:57:45.301Z,17.5
2022-10-06T15:58:44.825Z,17.5
2022-10-06T15:59:49.771Z,17.4
2022-10-06T16:00:44.730Z,17.1
2022-10-06T16:01:49.912Z,17.1
2022-10-06T16:02:45.167Z,17
2022-10-06T16:03:44.995Z,17
2022-10-06T16:04:45.059Z,17
2022-10-06T16:05:45.131Z,16.9
2022-10-06T16:06:45.094Z,16.9
2022-10-06T16:07:45.266Z,16.9
2022-10-06T16:08:45.166Z,17
2022-10-06T16:09:45.280Z,16.9
2022-10-06T16:10:45.225Z,16.8
2022-10-06T16:11:45.278Z,16.9
2022-10-06T16:12:45.361Z,17
2022-10-06T16:13:45.383Z,17
2022-10-06T16:14:45.455Z,17
2022-10-06T16:15:45.576Z,16.9
2022-10-06T16:16:45.602Z,16.9
2022-10-06T16:17:45.616Z,16.7
2022-10-06T16:18:45.650Z,16.8
2022-10-06T16:19:45.703Z,16.9
2022-10-06T16:20:45.743Z,16.8
2022-10-06T16:21:45.782Z,16.7
2022-10-06T16:22:45.898Z,16.6
2022-10-06T16:23:45.939Z,16.4
2022-10-06T16:24:50.975Z,16.5
2022-10-06T16:25:46.012Z,16.6
2022-10-06T16:26:46.058Z,16.6
2022-10-06T16:27:46.097Z,16.7
2022-10-06T16:28:46.383Z,16.7
2022-10-06T16:29:46.217Z,16.7
2022-10-06T16:30:46.240Z,16.6
2022-10-06T16:31:46.557Z,16.8
2022-10-06T16:32:46.436Z,16.8
2022-10-06T16:33:46.477Z,16.7
2022-10-06T16:34:46.572Z,16.8
2022-10-06T16:35:46.635Z,16.8
2022-10-06T16:36:46.692Z,16.9
2022-10-06T16:37:46.794Z,16.9
2022-10-06T16:38:46.883Z,16.9
2022-10-06T16:39:46.906Z,17
2022-10-06T16:40:46.968Z,16.9
2022-10-06T16:46:47.354Z,16.6
2022-10-06T16:47:47.383Z,16.6
2022-10-06T16:48:47.386Z,16.4
2022-10-06T16:49:47.494Z,16.4
2022-10-06T16:50:47.511Z,16.5
2022-10-06T16:51:47.559Z,16.5
2022-10-06T16:52:47.597Z,16.5
2022-10-06T16:53:47.620Z,16.4
2022-10-06T16:54:47.719Z,16.5
2022-10-06T16:55:47.744Z,16.5
2022-10-06T16:56:47.796Z,16.5
2022-10-06T16:57:52.869Z,16.5
2022-10-06T16:58:48.021Z,16.4
2022-10-06T16:59:47.987Z,16.4
2022-10-06T17:00:48.063Z,16.4
2022-10-06T17:01:48.097Z,16.3
2022-10-06T17:02:48.113Z,16.3
2022-10-06T17:03:48.241Z,16.3
2022-10-06T17:04:48.258Z,16.2
2022-10-06T17:05:48.612Z,16.2
2022-10-06T17:06:48.386Z,16.2
2022-10-06T17:07:48.421Z,16.2
2022-10-06T17:08:48.470Z,16.1
2022-10-06T17:10:08.300Z,16.1
2022-10-06T17:10:48.602Z,16.1
2022-10-06T17:11:48.753Z,16.1
2022-10-06T17:12:48.733Z,16.1
2022-10-06T17:13:48.789Z,16.1
2022-10-06T17:14:48.834Z,16.1
2022-10-06T17:15:48.902Z,16
2022-10-06T17:16:49.021Z,15.9
2022-10-06T17:17:49.056Z,15.9
2022-10-06T17:18:49.096Z,15.9
2022-10-06T17:19:49.205Z,15.9
2022-10-06T17:20:49.260Z,15.9
2022-10-06T17:21:52.911Z,15.8
2022-10-06T17:22:49.351Z,15.8
2022-10-06T17:23:49.415Z,15.8
2022-10-06T17:24:49.484Z,15.8
2022-10-06T17:25:49.556Z,15.7
2022-10-06T17:26:49.627Z,15.6
2022-10-06T17:27:49.651Z,15.5
2022-10-06T17:28:49.703Z,15.5
2022-10-06T17:29:49.761Z,15.7
2022-10-06T17:30:49.769Z,15.5
2022-10-06T17:31:49.977Z,15.4
2022-10-06T17:32:49.922Z,15.4
2022-10-06T17:33:50.015Z,15.3
2022-10-06T17:34:50.074Z,15.3
2022-10-06T17:35:50.098Z,15.3
2022-10-06T17:36:50.141Z,15.2
2022-10-06T17:37:50.181Z,15.3
2022-10-06T17:38:50.254Z,15.3
2022-10-06T17:39:50.355Z,15.3
2022-10-06T17:40:50.353Z,15.3
2022-10-06T17:41:50.430Z,15.3
2022-10-06T17:42:50.485Z,15.4
2022-10-06T17:43:50.529Z,15.3
2022-10-06T17:44:50.586Z,15.3
2022-10-06T17:45:50.694Z,15.3
2022-10-06T17:46:50.747Z,15.4
2022-10-06T17:47:50.800Z,15.5
2022-10-06T17:48:50.862Z,15.5
2022-10-06T17:49:50.926Z,15.4
2022-10-06T17:50:50.993Z,15.4
2022-10-06T17:51:51.088Z,15.4
2022-10-06T17:52:51.084Z,15.3
2022-10-06T17:53:51.103Z,15.3
2022-10-06T17:54:51.184Z,15.3
2022-10-06T17:55:51.201Z,15.3
2022-10-06T17:56:51.279Z,15.2
2022-10-06T17:57:51.345Z,15.1
2022-10-06T17:58:51.397Z,15
2022-10-06T17:59:51.471Z,14.9
2022-10-06T18:00:51.608Z,14.8
2022-10-06T18:01:51.899Z,14.8
2022-10-06T18:02:51.657Z,14.8
2022-10-06T18:03:51.795Z,14.7
2022-10-06T18:04:51.813Z,14.7
2022-10-06T18:05:51.794Z,14.7
2022-10-06T18:06:51.852Z,14.7
2022-10-06T18:07:51.905Z,14.7
2022-10-06T18:08:51.940Z,14.5
2022-10-06T18:09:52.043Z,14.5
2022-10-06T18:10:53.944Z,14.5
2022-10-06T18:11:52.138Z,14.6
2022-10-06T18:12:52.173Z,14.5
2022-10-06T18:13:52.259Z,14.5
2022-10-06T18:14:52.292Z,14.5
2022-10-06T18:15:52.372Z,14.4
2022-10-06T18:16:56.025Z,14.5
2022-10-06T18:17:52.466Z,14.5
2022-10-06T18:18:52.534Z,14.4
2022-10-06T18:19:52.581Z,14.3
2022-10-06T18:20:52.614Z,14.3
2022-10-06T18:21:52.669Z,14.3
2022-10-06T18:22:52.713Z,14.3
2022-10-06T18:23:52.832Z,14.3
2022-10-06T18:24:56.107Z,14.3
2022-10-06T18:25:52.863Z,14.2
2022-10-06T18:26:52.988Z,14.2
2022-10-06T18:27:53.005Z,14.3
2022-10-06T18:28:53.083Z,14.3
2022-10-06T18:29:53.120Z,14.2
2022-10-06T18:30:53.182Z,14.2
2022-10-06T18:31:53.359Z,14.1
2022-10-06T18:36:53.567Z,14.1
2022-10-06T18:37:56.603Z,14
2022-10-06T18:38:53.670Z,14.1
2022-10-06T18:39:53.752Z,14
2022-10-06T18:40:53.777Z,14
2022-10-06T18:41:53.893Z,14
2022-10-06T18:42:54.023Z,14
2022-10-06T18:43:54.021Z,14.1
2022-10-06T18:44:54.054Z,14.1
2022-10-06T18:45:54.127Z,14.1
2022-10-06T18:46:54.199Z,14.2
2022-10-06T18:47:54.215Z,14.1
2022-10-06T18:48:54.264Z,13.9
2022-10-06T18:49:54.360Z,13.9
2022-10-06T18:50:54.403Z,14
2022-10-06T18:51:58.042Z,13.9
2022-10-06T18:52:54.528Z,13.9
2022-10-06T18:53:54.590Z,14
2022-10-06T18:54:54.685Z,13.9
2022-10-06T18:55:54.757Z,14
2022-10-06T18:56:54.791Z,14.1
2022-10-06T18:58:02.233Z,14.1
2022-10-06T18:58:54.911Z,14
2022-10-06T19:00:59.895Z,14
2022-10-06T19:01:18.873Z,14.1
2022-10-06T19:01:55.221Z,14.1
2022-10-06T19:02:55.140Z,14
2022-10-06T19:03:55.188Z,13.9
2022-10-06T19:04:55.195Z,13.8
2022-10-06T19:05:55.265Z,13.7
2022-10-06T19:06:56.894Z,13.7
2022-10-06T19:07:55.359Z,13.7
2022-10-06T19:08:55.484Z,13.8
2022-10-06T19:09:55.508Z,13.8
2022-10-06T19:10:55.537Z,13.8
2022-10-06T19:11:55.591Z,13.8
2022-10-06T19:12:58.267Z,13.8
2022-10-06T19:13:55.752Z,13.9
2022-10-06T19:14:55.784Z,13.9
2022-10-06T19:15:55.828Z,14
2022-10-06T19:16:55.943Z,13.9
2022-10-06T19:17:55.940Z,13.8
2022-10-06T19:18:56.523Z,13.8
2022-10-06T19:19:56.058Z,13.8
2022-10-06T19:20:56.452Z,13.9
2022-10-06T19:21:56.177Z,13.8
2022-10-06T19:22:56.205Z,13.7
2022-10-06T19:23:56.258Z,13.8
2022-10-06T19:24:58.557Z,13.6
2022-10-06T19:25:56.371Z,13.7
2022-10-06T19:26:56.823Z,13.6
2022-10-06T19:27:56.618Z,13.6
2022-10-06T19:28:56.600Z,13.7
2022-10-06T19:29:57.009Z,13.7
2022-10-06T19:30:57.321Z,13.6
2022-10-06T19:31:56.767Z,13.4
2022-10-06T19:32:56.849Z,13.3
2022-10-06T19:33:56.917Z,13.3
2022-10-06T19:34:57.029Z,13.3
2022-10-06T19:35:56.988Z,13.4
2022-10-06T19:36:58.335Z,13.4
2022-10-06T19:37:57.169Z,13.4
2022-10-06T19:38:57.215Z,13.4
2022-10-06T19:39:57.269Z,13.5
2022-10-06T19:40:57.333Z,13.5
2022-10-06T19:41:57.402Z,13.5
2022-10-06T19:42:57.449Z,13.5
2022-10-06T19:43:57.580Z,13.5
2022-10-06T19:44:57.566Z,13.4
2022-10-06T19:45:57.659Z,13.2
2022-10-06T19:46:57.681Z,13.1
2022-10-06T19:47:57.775Z,13.1
2022-10-06T19:48:58.080Z,13.2
2022-10-06T19:49:59.875Z,13.2
2022-10-06T19:50:57.914Z,13.1
2022-10-06T19:51:58.022Z,13.1
2022-10-06T19:52:58.058Z,13.2
2022-10-06T19:53:58.089Z,13.2
2022-10-06T19:54:58.526Z,13.1
2022-10-06T19:55:58.193Z,29.1
2022-10-06T19:57:00.834Z,13.1
2022-10-06T19:57:58.256Z,13.2
2022-10-06T19:58:58.369Z,13.3
2022-10-06T19:59:58.405Z,13.3
2022-10-06T20:00:59.174Z,13.4
2022-10-06T20:01:58.455Z,13.4
2022-10-06T20:02:58.543Z,13.3
2022-10-06T20:03:58.733Z,13.3
2022-10-06T20:04:58.665Z,13.3
2022-10-06T20:05:58.775Z,13.1
2022-10-06T20:06:59.016Z,12.9
2022-10-06T20:07:58.867Z,12.9
2022-10-06T20:08:58.940Z,13
2022-10-06T20:09:58.957Z,13.1
2022-10-06T20:10:59.087Z,13.1
2022-10-06T20:11:59.069Z,13.2
2022-10-06T20:12:59.612Z,12.9
2022-10-06T20:13:59.194Z,12.7
2022-10-06T20:14:59.215Z,12.6
2022-10-06T20:15:59.335Z,12.7
2022-10-06T20:16:59.666Z,12.7
2022-10-06T20:17:59.429Z,12.5
2022-10-06T20:18:59.464Z,12.5
2022-10-06T20:19:59.521Z,12.5
2022-10-06T20:20:59.557Z,12.6
2022-10-06T20:21:59.645Z,12.7
2022-10-06T20:22:59.650Z,12.8
2022-10-06T20:23:59.723Z,12.7
2022-10-06T20:24:59.779Z,12.7
2022-10-06T20:25:59.784Z,12.7
2022-10-06T20:26:59.803Z,12.8
2022-10-06T20:27:59.979Z,12.7
2022-10-06T20:28:59.956Z,12.5
2022-10-06T20:29:59.997Z,12.2
2022-10-06T20:31:01.460Z,12.2
2022-10-06T20:32:00.155Z,12.1
2022-10-06T20:33:00.143Z,12.1
2022-10-06T20:34:00.230Z,12.1
2022-10-06T20:35:00.268Z,12.1
2022-10-06T20:36:00.315Z,12
2022-10-06T20:37:00.369Z,11.8
2022-10-06T20:38:00.416Z,11.8
2022-10-06T20:39:00.476Z,11.9
2022-10-06T20:40:00.520Z,11.9
2022-10-06T20:41:00.588Z,11.9
2022-10-06T20:42:00.685Z,11.9
2022-10-06T20:43:00.704Z,11.9
2022-10-06T20:44:00.847Z,12
2022-10-06T20:45:00.821Z,12
2022-10-06T20:46:00.914Z,11.8
2022-10-06T20:47:05.941Z,11.7
2022-10-06T20:48:01.006Z,11.6
2022-10-06T20:49:01.047Z,11.8
2022-10-06T20:50:01.114Z,11.8
2022-10-06T20:51:01.121Z,12
2022-10-06T20:52:01.212Z,12
2022-10-06T20:53:01.289Z,12.1
2022-10-06T20:54:01.323Z,12
2022-10-06T20:55:01.346Z,12
2022-10-06T20:56:01.433Z,11.6
2022-10-06T20:57:01.496Z,11.1
2022-10-06T20:58:01.528Z,10.8
2022-10-06T20:59:01.588Z,10.8
2022-10-06T21:00:01.617Z,11.1
2022-10-06T21:01:03.192Z,11.2
2022-10-06T21:02:01.823Z,11.3
2022-10-06T21:03:01.900Z,11.4
2022-10-06T21:04:01.882Z,11.3
2022-10-06T21:05:01.929Z,11.2
2022-10-06T21:06:01.978Z,11.3
2022-10-06T21:07:02.048Z,11.3
2022-10-06T21:08:02.101Z,11.5
2022-10-06T21:09:02.278Z,11.5
2022-10-06T21:10:02.233Z,11.3
2022-10-06T21:11:02.298Z,11.5
2022-10-06T21:12:02.358Z,11.8
2022-10-06T21:13:02.414Z,11.9
2022-10-06T21:14:02.482Z,11.7
2022-10-06T21:15:02.540Z,11.7
2022-10-06T21:16:02.763Z,12
2022-10-06T21:17:02.660Z,11.9
2022-10-06T21:18:02.711Z,11.9
2022-10-06T21:19:02.774Z,11.8